Time;durP1;ratioP1;P1;durP2;ratioP2;P2;SDS_P1;SDS_P2;PMS_P1;PMS_P2;Temp;Humidity;BMP_temperature;BMP_pressure;BME280_temperature;BME280_humidity;BME280_pressure;Samples;Min_cycle;Max_cycle;Signal;HPM_P1;HPM_P2
2022/08/13 00:00:11;;;;;;;7.33;3.50;;;24.10;20.90;;;;;;4957036;28;20513;-71
2022/08/13 00:02:39;;;;;;;5.93;3.60;;;24.00;20.80;;;;;;4974203;28;20441;-71
2022/08/13 00:05:06;;;;;;;5.40;3.57;;;24.10;21.10;;;;;;4973958;28;20525;-71
2022/08/13 00:07:31;;;;;;;3.90;3.30;;;24.10;21.20;;;;;;4974129;28;20461;-71
2022/08/13 00:09:59;;;;;;;5.17;3.20;;;24.00;22.00;;;;;;4974288;28;20832;-71
2022/08/13 00:15:37;;;;;;;3.93;3.40;;;23.80;22.50;;;;;;4932996;29;20507;-70
2022/08/13 00:18:07;;;;;;;5.00;3.20;;;23.90;22.00;;;;;;4933187;29;20431;-71
2022/08/13 00:20:42;;;;;;;4.30;3.40;;;23.80;21.90;;;;;;4932995;29;20451;-71
2022/08/13 00:23:13;;;;;;;6.80;3.37;;;23.70;22.10;;;;;;4933505;29;20902;-71
2022/08/13 00:25:39;;;;;;;3.90;3.40;;;23.70;22.60;;;;;;4931083;29;20498;-73
2022/08/13 00:28:05;;;;;;;4.87;3.50;;;23.70;21.90;;;;;;4933171;29;20451;-72
2022/08/13 00:30:33;;;;;;;5.80;3.70;;;23.50;22.50;;;;;;4933853;29;20524;-70
2022/08/13 00:33:12;;;;;;;6.37;3.80;;;23.60;22.60;;;;;;4931161;29;20309;-70
2022/08/13 00:35:41;;;;;;;4.63;3.87;;;23.50;22.10;;;;;;4930425;29;21080;-70
2022/08/13 00:38:13;;;;;;;4.20;3.60;;;23.40;22.70;;;;;;4933211;29;20439;-70
2022/08/13 00:40:47;;;;;;;12.83;3.80;;;23.40;23.30;;;;;;4934032;29;20459;-70
2022/08/13 00:43:14;;;;;;;4.50;3.70;;;23.50;22.00;;;;;;4933601;29;21082;-69
2022/08/13 00:45:41;;;;;;;3.90;3.47;;;23.50;21.60;;;;;;4933895;29;20444;-70
2022/08/13 00:50:52;;;;;;;4.27;3.63;;;23.40;23.00;;;;;;4974133;28;20922;-70
2022/08/13 00:53:19;;;;;;;6.53;3.50;;;23.40;23.60;;;;;;4973713;28;20449;-70
2022/08/13 00:55:50;;;;;;;10.43;3.30;;;23.40;22.70;;;;;;4974247;28;20454;-70
2022/08/13 00:58:17;;;;;;;3.87;3.40;;;23.60;22.20;;;;;;4976004;28;20431;-71
2022/08/13 01:00:47;;;;;;;4.37;3.50;;;23.70;22.20;;;;;;4974309;28;20528;-71
2022/08/13 01:03:14;;;;;;;4.03;3.60;;;23.50;23.80;;;;;;4973876;28;20413;-70
2022/08/13 01:05:43;;;;;;;4.93;3.73;;;23.50;22.60;;;;;;4974374;28;20453;-71
2022/08/13 01:08:09;;;;;;;8.50;3.50;;;23.50;22.90;;;;;;4977930;28;20526;-71
2022/08/13 01:10:35;;;;;;;5.30;3.43;;;23.30;22.20;;;;;;4975515;28;20451;-70
2022/08/13 01:13:03;;;;;;;8.50;3.80;;;23.40;22.40;;;;;;4973504;28;20484;-71
2022/08/13 01:15:31;;;;;;;5.33;3.70;;;23.30;22.20;;;;;;4973825;28;20467;-70
2022/08/13 01:17:57;;;;;;;6.70;3.60;;;23.10;23.80;;;;;;4975758;28;20944;-70
2022/08/13 01:20:27;;;;;;;6.47;3.90;;;22.60;22.60;;;;;;4974941;28;20796;-70
2022/08/13 01:22:52;;;;;;;4.30;3.63;;;22.50;23.10;;;;;;4973224;28;20756;-70
2022/08/13 01:25:21;;;;;;;5.93;4.13;;;22.80;23.70;;;;;;4973171;28;20462;-72
2022/08/13 01:27:49;;;;;;;4.40;3.73;;;22.70;24.50;;;;;;4973830;28;20261;-70
2022/08/13 01:30:16;;;;;;;28.20;4.17;;;22.70;23.90;;;;;;4975626;28;20444;-70
2022/08/13 01:32:43;;;;;;;4.90;3.87;;;22.50;24.20;;;;;;4973318;28;20423;-71
2022/08/13 01:35:09;;;;;;;4.20;3.43;;;22.40;23.90;;;;;;4972838;28;20560;-71
2022/08/13 01:37:37;;;;;;;5.90;4.40;;;22.40;24.70;;;;;;4972478;28;20495;-70
2022/08/13 01:40:05;;;;;;;12.03;4.40;;;22.30;25.00;;;;;;4975656;28;20173;-71
2022/08/13 01:42:38;;;;;;;8.60;4.53;;;21.50;23.80;;;;;;4972489;28;20434;-73
2022/08/13 01:45:04;;;;;;;4.57;4.10;;;22.10;25.20;;;;;;4973257;28;20489;-70
2022/08/13 01:50:29;;;;;;;4.80;3.63;;;22.30;24.90;;;;;;4975442;28;20451;-70
2022/08/13 01:53:07;;;;;;;4.67;4.03;;;22.10;25.60;;;;;;4968391;28;20407;-72
2022/08/13 01:55:39;;;;;;;4.23;3.60;;;22.00;25.80;;;;;;4973131;28;20470;-73
2022/08/13 01:58:25;;;;;;;7.43;3.67;;;22.00;24.90;;;;;;4971014;28;20430;-72
2022/08/13 02:00:57;;;;;;;5.60;3.60;;;22.00;25.30;;;;;;4969995;28;20947;-70
2022/08/13 02:03:24;;;;;;;6.30;4.00;;;22.20;24.60;;;;;;4954918;28;20506;-71
2022/08/13 02:05:50;;;;;;;8.03;4.23;;;22.20;24.20;;;;;;4971730;28;20548;-70
2022/08/13 02:08:20;;;;;;;10.77;3.93;;;22.20;25.00;;;;;;4971851;28;20414;-71
2022/08/13 02:10:47;;;;;;;4.43;3.93;;;22.00;25.90;;;;;;4972387;28;20428;-71
2022/08/13 02:13:16;;;;;;;7.60;3.93;;;21.80;25.60;;;;;;4971898;28;20954;-71
2022/08/13 02:15:44;;;;;;;7.20;4.03;;;21.90;25.60;;;;;;4971953;28;21097;-71
2022/08/13 02:18:20;;;;;;;7.87;3.90;;;21.80;26.00;;;;;;4972754;28;20605;-70
2022/08/13 02:20:48;;;;;;;14.03;4.43;;;21.50;25.90;;;;;;4973960;28;20446;-70
2022/08/13 02:23:23;;;;;;;5.87;4.13;;;21.40;27.00;;;;;;4973196;28;20421;-70
2022/08/13 02:25:50;;;;;;;4.20;3.90;;;21.40;26.80;;;;;;4953184;28;20483;-70
2022/08/13 02:28:19;;;;;;;5.70;4.10;;;21.30;26.90;;;;;;4953413;29;20447;-71
2022/08/13 02:30:46;;;;;;;4.67;4.03;;;21.60;25.30;;;;;;4964380;28;20488;-72
2022/08/13 02:33:13;;;;;;;4.80;4.10;;;21.50;27.00;;;;;;4977128;28;20516;-72
2022/08/13 02:35:39;;;;;;;5.77;4.53;;;21.30;26.90;;;;;;4980964;28;20562;-71
2022/08/13 02:38:06;;;;;;;5.57;3.93;;;21.20;26.40;;;;;;4972185;28;20425;-70
2022/08/13 02:43:16;;;;;;;5.70;4.03;;;21.00;27.40;;;;;;4971791;28;20423;-70
2022/08/13 02:45:45;;;;;;;17.60;4.20;;;21.00;27.90;;;;;;4972530;28;20465;-71
2022/08/13 02:48:11;;;;;;;6.00;4.30;;;21.10;26.70;;;;;;4972206;28;20425;-72
2022/08/13 02:50:45;;;;;;;8.33;4.73;;;21.00;27.30;;;;;;4972363;28;20786;-71
2022/08/13 02:53:15;;;;;;;4.67;4.17;;;20.90;27.40;;;;;;4973727;28;20803;-70
2022/08/13 02:55:41;;;;;;;5.27;4.40;;;21.10;26.80;;;;;;4971220;28;20568;-71
2022/08/13 02:58:08;;;;;;;5.40;4.57;;;20.70;28.30;;;;;;4972373;28;20958;-70
2022/08/13 03:00:35;;;;;;;5.43;4.20;;;20.70;28.80;;;;;;4972215;28;20424;-70
2022/08/13 03:03:03;;;;;;;4.33;3.90;;;20.60;28.00;;;;;;4973299;28;20449;-72
2022/08/13 03:05:30;;;;;;;8.43;4.43;;;20.60;29.20;;;;;;4972753;28;20505;-69
2022/08/13 03:07:57;;;;;;;7.70;4.10;;;20.60;28.90;;;;;;4972124;28;20440;-70
2022/08/13 03:10:25;;;;;;;5.37;4.63;;;20.80;27.80;;;;;;4954851;28;21020;-70
2022/08/13 03:12:59;;;;;;;7.37;4.60;;;20.70;28.50;;;;;;4972819;28;20950;-71
2022/08/13 03:15:26;;;;;;;7.10;4.27;;;20.70;28.00;;;;;;4975714;28;20494;-72
2022/08/13 03:17:52;;;;;;;9.60;4.87;;;20.50;28.40;;;;;;4991665;28;20420;-70
2022/08/13 03:20:18;;;;;;;5.90;4.20;;;20.60;28.90;;;;;;4974411;28;20443;-70
2022/08/13 03:22:48;;;;;;;9.40;4.00;;;20.70;28.10;;;;;;4975445;28;20427;-70
2022/08/13 03:25:14;;;;;;;5.77;4.17;;;20.70;28.70;;;;;;4975609;28;20567;-73
2022/08/13 03:27:40;;;;;;;9.73;4.57;;;20.50;28.80;;;;;;4976465;28;20437;-72
2022/08/13 03:30:06;;;;;;;6.47;4.50;;;20.20;29.80;;;;;;4975565;28;20441;-70
2022/08/13 03:32:36;;;;;;;5.50;4.10;;;20.30;28.90;;;;;;4975337;28;20560;-71
2022/08/13 03:35:02;;;;;;;8.50;4.80;;;20.60;28.90;;;;;;4976789;28;20558;-71
2022/08/13 03:37:28;;;;;;;7.87;4.70;;;20.30;29.10;;;;;;4985065;28;20946;-71
2022/08/13 03:39:53;;;;;;;6.77;4.70;;;20.30;29.10;;;;;;4990976;28;20444;-70
2022/08/13 03:42:19;;;;;;;6.87;4.47;;;20.40;29.20;;;;;;4974691;28;20707;-71
2022/08/13 03:44:44;;;;;;;8.60;4.80;;;20.30;29.60;;;;;;4976837;28;20199;-71
2022/08/13 03:47:12;;;;;;;6.60;4.77;;;20.30;29.30;;;;;;4976395;28;20184;-71
2022/08/13 03:49:39;;;;;;;8.20;5.17;;;20.40;29.00;;;;;;4975492;28;20249;-71
2022/08/13 03:52:04;;;;;;;7.37;4.60;;;20.20;28.90;;;;;;4974833;28;21006;-71
2022/08/13 03:54:30;;;;;;;7.07;4.27;;;20.10;29.50;;;;;;4975710;28;20526;-73
2022/08/13 03:56:56;;;;;;;6.20;5.03;;;20.00;29.50;;;;;;4975002;28;20206;-73
2022/08/13 03:59:21;;;;;;;9.23;4.80;;;19.90;30.60;;;;;;4975179;28;20722;-70
2022/08/13 04:01:50;;;;;;;5.03;4.63;;;19.90;30.60;;;;;;4974417;28;20207;-71
2022/08/13 04:04:17;;;;;;;7.33;4.27;;;19.80;30.00;;;;;;4973207;28;20263;-73
2022/08/13 04:06:43;;;;;;;6.87;4.90;;;19.80;30.20;;;;;;4976595;28;20493;-71
2022/08/13 04:09:08;;;;;;;6.20;4.90;;;19.70;30.60;;;;;;4974079;28;20528;-71
2022/08/13 04:11:34;;;;;;;5.80;4.47;;;19.60;30.40;;;;;;4974454;28;20604;-74
2022/08/13 04:14:00;;;;;;;6.20;4.53;;;19.60;31.00;;;;;;4974232;28;20201;-71
2022/08/13 04:16:26;;;;;;;7.40;5.20;;;19.60;31.90;;;;;;4966646;28;20245;-73
2022/08/13 04:18:52;;;;;;;8.23;5.17;;;19.50;32.10;;;;;;4974528;28;20195;-71
2022/08/13 04:21:20;;;;;;;8.03;5.00;;;19.70;30.70;;;;;;4974872;28;20435;-71
2022/08/13 04:23:46;;;;;;;6.90;4.80;;;19.70;31.50;;;;;;4974400;28;20975;-70
2022/08/13 04:26:16;;;;;;;5.17;4.73;;;19.70;31.70;;;;;;4974355;28;20536;-73
2022/08/13 04:28:43;;;;;;;5.30;4.90;;;19.60;31.70;;;;;;4974558;28;20425;-73
2022/08/13 04:31:13;;;;;;;8.80;5.47;;;19.50;31.40;;;;;;4974313;28;20443;-74
2022/08/13 04:33:39;;;;;;;7.27;4.80;;;19.70;31.20;;;;;;4972629;28;20443;-74
2022/08/13 04:36:07;;;;;;;6.70;5.03;;;19.60;31.30;;;;;;4972675;28;20512;-73
2022/08/13 04:38:32;;;;;;;7.53;4.57;;;19.60;30.80;;;;;;4974280;28;20413;-73
2022/08/13 04:40:58;;;;;;;9.20;4.93;;;19.50;32.10;;;;;;4974276;28;20817;-72
2022/08/13 04:43:24;;;;;;;6.03;4.77;;;19.60;31.90;;;;;;4971989;28;20590;-71
2022/08/13 04:45:49;;;;;;;6.33;4.90;;;19.50;32.00;;;;;;4974086;28;20202;-70
2022/08/13 04:48:16;;;;;;;8.47;5.27;;;19.40;32.10;;;;;;4974240;28;20179;-68
2022/08/13 04:50:45;;;;;;;7.03;4.90;;;19.30;31.80;;;;;;4973255;28;20186;-71
2022/08/13 04:53:41;;;;;;;6.70;5.40;;;19.30;31.30;;;;;;4973166;28;20508;-71
2022/08/13 04:56:07;;;;;;;9.93;5.30;;;18.80;32.10;;;;;;4876470;29;20567;-70
2022/08/13 04:58:33;;;;;;;8.43;6.10;;;19.00;32.30;;;;;;4880163;29;20590;-70
2022/08/13 05:01:09;;;;;;;7.50;5.80;;;19.20;32.10;;;;;;4887090;29;20521;-70
2022/08/13 05:03:38;;;;;;;13.97;6.67;;;19.30;31.60;;;;;;4883567;29;20448;-70
2022/08/13 05:06:11;;;;;;;12.80;8.53;;;19.30;32.40;;;;;;4887102;29;20473;-70
2022/08/13 05:08:39;;;;;;;14.13;7.63;;;19.00;32.30;;;;;;4895308;29;20435;-70
2022/08/13 05:11:05;;;;;;;11.00;7.43;;;19.10;32.80;;;;;;4894627;29;20951;-70
2022/08/13 05:13:35;;;;;;;11.43;6.90;;;19.20;32.50;;;;;;4883655;29;20449;-71
2022/08/13 05:16:03;;;;;;;8.17;6.50;;;19.50;32.80;;;;;;4886270;29;20481;-69
2022/08/13 05:18:32;;;;;;;15.50;5.27;;;19.70;31.90;;;;;;4882526;29;20458;-70
2022/08/13 05:21:01;;;;;;;6.70;5.20;;;19.60;30.80;;;;;;4883326;29;20424;-71
2022/08/13 05:23:27;;;;;;;11.83;5.10;;;19.60;31.50;;;;;;4878268;29;20442;-70
2022/08/13 05:25:53;;;;;;;6.17;4.90;;;19.70;31.70;;;;;;4887703;29;20458;-70
2022/08/13 05:28:20;;;;;;;6.80;5.30;;;19.90;31.30;;;;;;4896599;29;20194;-70
2022/08/13 05:30:47;;;;;;;10.37;5.47;;;19.90;30.40;;;;;;4872166;29;20478;-70
2022/08/13 05:33:22;;;;;;;10.03;7.83;;;19.90;30.20;;;;;;4959371;28;20433;-69
2022/08/13 05:35:52;;;;;;;12.33;6.70;;;19.60;30.40;;;;;;4974894;28;20554;-70
2022/08/13 05:38:23;;;;;;;10.37;7.20;;;19.40;30.90;;;;;;4973358;28;20461;-70
2022/08/13 05:40:50;;;;;;;9.77;7.30;;;19.60;31.60;;;;;;4972961;28;20432;-69
2022/08/13 05:43:19;;;;;;;12.13;8.23;;;19.60;30.80;;;;;;4972529;28;20421;-70
2022/08/13 05:45:59;;;;;;;10.40;7.87;;;19.90;30.40;;;;;;4973683;28;20449;-70
2022/08/13 05:48:34;;;;;;;10.60;6.40;;;20.00;30.80;;;;;;4973435;28;20518;-70
2022/08/13 05:51:03;;;;;;;6.73;5.40;;;20.30;30.00;;;;;;4974109;28;20461;-70
2022/08/13 05:53:32;;;;;;;14.60;5.50;;;20.20;29.00;;;;;;4964199;28;20863;-69
2022/08/13 05:55:58;;;;;;;7.87;5.53;;;19.50;31.30;;;;;;4979744;28;21000;-72
2022/08/13 05:58:24;;;;;;;13.57;6.70;;;19.40;31.10;;;;;;4992620;28;20427;-72
2022/08/13 06:03:36;;;;;;;14.97;6.47;;;20.10;30.80;;;;;;4969064;28;20449;-71
2022/08/13 06:06:08;;;;;;;13.57;6.70;;;20.10;29.50;;;;;;4972298;28;20465;-72
2022/08/13 06:08:36;;;;;;;10.67;6.30;;;20.50;29.30;;;;;;4972704;28;20778;-72
2022/08/13 06:11:08;;;;;;;8.03;5.30;;;20.10;29.90;;;;;;4972524;28;20424;-72
2022/08/13 06:13:38;;;;;;;9.17;5.40;;;20.40;30.20;;;;;;4973411;28;20453;-72
2022/08/13 06:16:06;;;;;;;7.43;6.00;;;20.60;29.40;;;;;;4972254;28;20996;-72
2022/08/13 06:18:34;;;;;;;7.53;6.10;;;20.90;30.00;;;;;;4954886;28;20922;-72
2022/08/13 06:21:03;;;;;;;11.07;5.77;;;21.00;29.20;;;;;;4970515;28;20524;-71
2022/08/13 06:23:30;;;;;;;11.50;5.53;;;21.00;29.80;;;;;;4970103;28;20529;-72
2022/08/13 06:25:58;;;;;;;7.00;5.40;;;21.20;29.80;;;;;;4970420;28;20454;-73
2022/08/13 06:28:27;;;;;;;7.80;6.90;;;20.60;28.40;;;;;;5006738;23;21094;-72
2022/08/13 06:31:00;;;;;;;6.93;6.13;;;20.40;29.30;;;;;;4959911;28;20803;-72
2022/08/13 06:33:28;;;;;;;7.50;6.03;;;20.40;31.10;;;;;;4964400;28;20405;-73
2022/08/13 06:35:58;;;;;;;9.03;6.60;;;21.10;30.10;;;;;;4961984;28;20462;-72
2022/08/13 06:38:40;;;;;;;7.80;6.43;;;20.80;29.00;;;;;;4961331;28;20948;-72
2022/08/13 06:41:07;;;;;;;7.67;6.00;;;21.10;29.10;;;;;;4958788;28;20428;-73
2022/08/13 06:43:42;;;;;;;9.87;6.13;;;21.40;28.80;;;;;;4960913;28;20430;-73
2022/08/13 06:46:12;;;;;;;7.37;5.90;;;21.70;28.60;;;;;;4972296;28;20428;-72
2022/08/13 06:48:42;;;;;;;11.77;6.80;;;21.80;28.70;;;;;;4967123;28;20458;-73
2022/08/13 06:51:10;;;;;;;10.90;7.30;;;21.00;28.00;;;;;;4945197;28;20518;-72
2022/08/13 06:53:39;;;;;;;15.57;8.30;;;20.40;29.70;;;;;;4964345;28;20426;-72
2022/08/13 06:56:10;;;;;;;11.10;7.80;;;20.70;29.00;;;;;;4967570;28;20517;-74
2022/08/13 06:58:37;;;;;;;14.30;8.03;;;20.80;29.00;;;;;;4963277;28;20471;-72
2022/08/13 07:01:03;;;;;;;15.03;7.63;;;20.50;29.60;;;;;;4952734;28;20865;-72
2022/08/13 07:03:32;;;;;;;9.30;7.30;;;20.80;30.40;;;;;;4955090;28;20488;-72
2022/08/13 07:05:58;;;;;;;7.50;7.03;;;21.40;29.30;;;;;;4950505;28;20831;-72
2022/08/13 07:08:27;;;;;;;9.50;6.93;;;21.60;29.20;;;;;;4963894;28;20447;-72
2022/08/13 07:13:40;;;;;;;7.30;6.27;;;21.50;28.20;;;;;;4962535;28;20458;-72
2022/08/13 07:16:11;;;;;;;9.30;5.80;;;21.10;29.30;;;;;;4955410;29;20461;-72
2022/08/13 07:18:37;;;;;;;11.90;7.93;;;21.30;28.90;;;;;;4956250;29;20442;-72
2022/08/13 07:21:11;;;;;;;13.83;5.60;;;21.40;28.30;;;;;;4953757;29;20488;-72
2022/08/13 07:23:38;;;;;;;6.40;5.17;;;21.40;28.70;;;;;;4937231;29;20503;-72
2022/08/13 07:26:05;;;;;;;6.30;4.57;;;21.20;29.00;;;;;;4967905;28;20429;-72
2022/08/13 07:28:32;;;;;;;5.50;4.70;;;21.70;29.00;;;;;;4959701;28;20554;-72
2022/08/13 07:30:59;;;;;;;8.50;5.43;;;22.50;28.80;;;;;;4955880;29;21116;-72
2022/08/13 07:33:25;;;;;;;8.67;5.30;;;22.70;26.60;;;;;;4956177;29;20424;-72
2022/08/13 07:35:51;;;;;;;8.17;5.23;;;22.00;27.50;;;;;;4956123;29;20472;-72
2022/08/13 07:38:17;;;;;;;6.17;5.23;;;22.20;27.60;;;;;;4955845;28;20475;-72
2022/08/13 07:40:48;;;;;;;7.93;5.40;;;22.40;27.70;;;;;;4954415;28;20192;-74
2022/08/13 07:43:16;;;;;;;8.07;5.30;;;22.30;27.70;;;;;;4964856;28;20257;-73
2022/08/13 07:45:42;;;;;;;5.90;4.67;;;22.70;27.40;;;;;;4966621;28;20491;-73
2022/08/13 07:48:09;;;;;;;6.67;5.30;;;22.60;27.40;;;;;;4963723;28;20442;-74
2022/08/13 07:50:35;;;;;;;15.13;4.90;;;22.70;27.30;;;;;;4954916;28;20325;-73
2022/08/13 07:53:02;;;;;;;5.93;4.93;;;23.20;27.30;;;;;;4959528;28;20797;-73
2022/08/13 07:55:28;;;;;;;8.63;5.10;;;23.50;26.70;;;;;;4965802;28;20472;-73
2022/08/13 07:57:54;;;;;;;9.37;4.83;;;23.70;26.60;;;;;;4967076;28;20517;-72
2022/08/13 08:00:26;;;;;;;10.20;4.70;;;24.00;26.00;;;;;;4958810;28;20431;-72
2022/08/13 08:03:01;;;;;;;7.67;5.17;;;24.20;25.60;;;;;;4959025;28;20202;-73
2022/08/13 08:05:31;;;;;;;6.73;4.83;;;24.10;24.90;;;;;;4951387;28;20493;-72
2022/08/13 08:07:58;;;;;;;9.00;5.00;;;24.10;25.40;;;;;;4955245;28;20450;-73
2022/08/13 08:10:25;;;;;;;6.07;5.03;;;24.30;26.10;;;;;;4962939;28;20438;-73
2022/08/13 08:12:50;;;;;;;10.10;5.17;;;24.30;25.50;;;;;;4959822;28;20524;-73
2022/08/13 08:15:17;;;;;;;5.80;4.93;;;24.50;25.30;;;;;;4963305;28;20566;-72
2022/08/13 08:17:42;;;;;;;6.13;4.97;;;24.60;24.80;;;;;;4965149;28;20691;-73
2022/08/13 08:20:09;;;;;;;8.63;5.07;;;23.90;26.10;;;;;;4965034;28;20436;-72
2022/08/13 08:22:36;;;;;;;10.00;5.50;;;24.30;25.00;;;;;;4955424;28;20706;-73
2022/08/13 08:25:03;;;;;;;9.13;4.73;;;24.60;24.50;;;;;;4962946;28;20439;-72
2022/08/13 08:27:32;;;;;;;7.90;5.20;;;24.90;24.60;;;;;;4960887;28;20518;-73
2022/08/13 08:30:00;;;;;;;6.83;5.37;;;24.50;24.10;;;;;;4957333;28;20479;-72
2022/08/13 08:32:26;;;;;;;5.77;4.70;;;24.10;24.90;;;;;;4956394;28;20474;-72
2022/08/13 08:34:52;;;;;;;13.20;5.10;;;23.70;25.80;;;;;;4951448;28;20948;-72
2022/08/13 08:42:55;;;;;;;8.27;4.67;;;24.20;25.30;;;;;;4958618;28;20449;-72
2022/08/13 08:45:22;;;;;;;13.43;4.93;;;24.80;24.80;;;;;;4957751;28;20815;-72
2022/08/13 08:47:48;;;;;;;8.90;5.10;;;25.10;25.20;;;;;;4954884;28;20430;-72
2022/08/13 08:50:22;;;;;;;8.80;4.77;;;25.30;25.40;;;;;;4956224;28;20434;-72
2022/08/13 08:55:36;;;;;;;6.83;4.70;;;25.20;23.50;;;;;;4958286;28;20509;-72
2022/08/13 08:58:07;;;;;;;8.90;4.97;;;25.60;23.20;;;;;;4970943;28;20442;-72
2022/08/13 09:00:35;;;;;;;6.80;4.40;;;25.70;23.80;;;;;;4956699;28;20419;-71
2022/08/13 09:03:02;;;;;;;6.83;5.17;;;26.20;24.10;;;;;;4935075;29;20415;-71
2022/08/13 09:05:28;;;;;;;5.30;4.57;;;25.90;22.90;;;;;;4935253;29;20454;-73
2022/08/13 09:07:55;;;;;;;5.10;4.07;;;26.20;22.90;;;;;;4935401;29;20515;-72
2022/08/13 09:10:22;;;;;;;7.80;5.27;;;26.30;22.80;;;;;;4935843;29;20172;-72
2022/08/13 09:12:50;;;;;;;8.00;5.33;;;26.10;22.60;;;;;;4954000;29;20430;-71
2022/08/13 09:15:22;;;;;;;9.23;4.67;;;26.20;23.40;;;;;;4954014;29;21112;-72
2022/08/13 09:17:50;;;;;;;7.43;4.10;;;26.80;23.90;;;;;;4954060;28;20418;-72
2022/08/13 09:20:21;;;;;;;10.00;4.97;;;27.10;21.10;;;;;;4952880;28;20522;-72
2022/08/13 09:22:48;;;;;;;9.00;4.53;;;27.20;21.60;;;;;;4953300;28;20434;-72
2022/08/13 09:25:16;;;;;;;9.00;4.93;;;27.40;20.80;;;;;;4959405;28;20889;-72
2022/08/13 09:27:46;;;;;;;7.63;4.37;;;27.20;21.30;;;;;;4961816;28;20428;-73
2022/08/13 09:30:14;;;;;;;6.70;4.50;;;27.40;20.90;;;;;;4957626;28;20434;-72
2022/08/13 09:32:39;;;;;;;13.13;4.83;;;27.20;21.30;;;;;;4961612;28;20406;-72
2022/08/13 09:35:06;;;;;;;12.00;4.77;;;27.40;21.60;;;;;;4963191;28;20417;-72
2022/08/13 09:37:33;;;;;;;10.80;4.83;;;27.50;21.00;;;;;;4960990;28;20186;-71
2022/08/13 09:40:12;;;;;;;9.10;4.77;;;27.70;20.90;;;;;;4960053;28;20418;-72
2022/08/13 09:42:57;;;;;;;10.93;4.93;;;27.60;20.90;;;;;;4959642;28;20920;-72
2022/08/13 09:45:27;;;;;;;7.80;4.97;;;27.70;21.40;;;;;;4962281;28;20460;-71
2022/08/13 09:47:56;;;;;;;9.30;4.87;;;27.60;20.50;;;;;;4968698;28;20402;-72
2022/08/13 09:50:24;;;;;;;9.87;5.00;;;27.90;21.10;;;;;;4973200;28;20398;-72
2022/08/13 09:52:52;;;;;;;8.37;4.90;;;28.00;20.30;;;;;;4951840;28;20434;-72
2022/08/13 09:55:19;;;;;;;6.80;4.57;;;28.00;20.60;;;;;;4953489;29;20418;-72
2022/08/13 09:57:51;;;;;;;12.73;4.60;;;28.10;20.20;;;;;;4954119;29;20407;-72
2022/08/13 10:00:22;;;;;;;8.50;4.70;;;28.10;18.80;;;;;;4954307;29;20783;-73
2022/08/13 10:02:50;;;;;;;13.10;3.97;;;27.90;19.00;;;;;;4952208;29;20517;-72
2022/08/13 10:05:18;;;;;;;8.60;4.07;;;28.20;19.10;;;;;;4953494;29;20430;-72
2022/08/13 10:07:45;;;;;;;5.80;4.37;;;28.40;18.90;;;;;;4953199;29;20906;-72
2022/08/13 10:10:11;;;;;;;9.93;4.43;;;28.50;18.80;;;;;;4953547;29;20406;-72
2022/08/13 10:12:37;;;;;;;4.70;4.23;;;28.60;18.50;;;;;;4951122;29;20764;-72
2022/08/13 10:15:03;;;;;;;6.30;4.20;;;28.80;18.80;;;;;;4953340;29;20174;-72
2022/08/13 10:17:47;;;;;;;6.60;4.17;;;28.80;18.90;;;;;;4953396;29;20497;-72
2022/08/13 10:20:18;;;;;;;6.33;4.33;;;29.10;17.40;;;;;;4935946;29;20481;-72
2022/08/13 10:22:44;;;;;;;7.40;3.77;;;28.90;16.80;;;;;;4952086;29;20458;-72
2022/08/13 10:25:11;;;;;;;9.60;4.33;;;29.30;16.20;;;;;;4950443;29;20515;-72
2022/08/13 10:27:37;;;;;;;4.20;3.77;;;29.50;15.70;;;;;;4934193;29;20440;-72
2022/08/13 10:30:05;;;;;;;5.83;3.90;;;29.90;16.10;;;;;;4933850;29;20460;-72
2022/08/13 10:32:31;;;;;;;7.93;4.30;;;30.40;15.20;;;;;;4933678;29;20447;-73
2022/08/13 10:35:00;;;;;;;5.40;3.70;;;30.80;13.90;;;;;;4933986;29;20444;-72
2022/08/13 10:37:28;;;;;;;4.60;3.60;;;30.60;14.40;;;;;;4951998;28;20465;-72
2022/08/13 10:39:57;;;;;;;5.20;3.87;;;30.20;13.80;;;;;;4952494;28;20508;-72
2022/08/13 10:42:24;;;;;;;5.50;3.83;;;29.40;16.20;;;;;;4956066;28;20466;-72
2022/08/13 10:44:51;;;;;;;4.90;4.07;;;29.80;14.90;;;;;;4957845;28;20430;-72
2022/08/13 10:47:19;;;;;;;6.73;3.70;;;29.50;15.00;;;;;;4954188;28;20445;-72
2022/08/13 10:49:47;;;;;;;7.17;3.83;;;29.30;14.90;;;;;;4958948;28;20457;-72
2022/08/13 10:52:13;;;;;;;6.63;3.73;;;29.80;15.10;;;;;;4958122;28;20665;-72
2022/08/13 10:54:38;;;;;;;11.20;4.00;;;30.30;13.10;;;;;;4960674;28;20422;-72
2022/08/13 10:57:07;;;;;;;8.03;3.80;;;30.60;12.60;;;;;;4954855;28;20634;-73
2022/08/13 10:59:34;;;;;;;8.10;4.00;;;31.00;13.40;;;;;;4954147;28;20584;-72
2022/08/13 11:02:00;;;;;;;11.53;3.90;;;31.50;12.90;;;;;;4944857;28;20997;-72
2022/08/13 11:04:29;;;;;;;4.10;3.63;;;31.40;13.20;;;;;;4950603;28;20431;-73
2022/08/13 11:06:55;;;;;;;9.63;3.83;;;30.60;14.10;;;;;;4958195;28;20182;-72
2022/08/13 11:09:21;;;;;;;3.70;3.07;;;30.20;13.10;;;;;;4961075;28;20810;-73
2022/08/13 11:11:46;;;;;;;5.13;3.60;;;30.80;10.20;;;;;;4958006;28;20269;-72
2022/08/13 11:14:15;;;;;;;5.27;3.70;;;31.10;13.50;;;;;;4963813;28;20189;-72
2022/08/13 11:19:15;;;;;;;3.77;3.00;;;32.20;12.80;;;;;;4959370;28;20443;-72
2022/08/13 11:21:43;;;;;;;4.67;3.30;;;32.20;11.30;;;;;;4951591;28;20640;-72
2022/08/13 11:24:08;;;;;;;5.13;2.77;;;32.20;9.70;;;;;;4957679;28;20516;-72
2022/08/13 11:26:34;;;;;;;6.07;3.00;;;32.70;8.20;;;;;;4961868;28;20524;-72
2022/08/13 11:29:00;;;;;;;3.03;2.83;;;32.80;7.80;;;;;;4947393;28;20306;-73
2022/08/13 11:31:25;;;;;;;5.07;2.57;;;33.60;8.30;;;;;;4952924;28;20182;-74
2022/08/13 11:33:51;;;;;;;4.23;2.60;;;34.60;7.30;;;;;;4963392;28;20180;-73
2022/08/13 11:36:16;;;;;;;4.47;2.73;;;35.30;6.60;;;;;;4964785;28;20214;-73
2022/08/13 11:38:42;;;;;;;7.37;2.93;;;35.90;4.90;;;;;;4963720;28;20203;-73
2022/08/13 11:41:08;;;;;;;5.23;2.60;;;36.30;5.60;;;;;;4954254;28;20182;-73
2022/08/13 11:43:34;;;;;;;10.60;2.93;;;36.60;3.70;;;;;;4961937;28;20433;-73
2022/08/13 11:46:00;;;;;;;2.93;2.60;;;37.20;3.00;;;;;;4960514;28;20534;-74
2022/08/13 11:48:25;;;;;;;13.13;2.70;;;37.30;3.90;;;;;;4951330;28;20704;-73
2022/08/13 11:50:52;;;;;;;11.70;2.33;;;37.70;2.90;;;;;;4965271;28;20180;-73
2022/08/13 11:53:21;;;;;;;2.60;2.40;;;37.50;3.80;;;;;;4940750;28;20183;-73
2022/08/13 11:55:46;;;;;;;2.70;2.53;;;37.30;3.30;;;;;;4958999;28;20449;-74
2022/08/13 11:58:12;;;;;;;2.97;2.47;;;37.70;3.50;;;;;;4967993;28;20455;-73
2022/08/13 12:00:40;;;;;;;2.63;2.20;;;38.50;3.50;;;;;;4963762;28;20187;-73
2022/08/13 12:03:06;;;;;;;8.30;2.63;;;39.20;1.40;;;;;;4954638;29;20175;-74
2022/08/13 12:05:32;;;;;;;6.67;2.43;;;38.70;2.60;;;;;;4961857;28;20545;-73
2022/08/13 12:07:58;;;;;;;7.60;2.60;;;38.70;1.80;;;;;;4967005;28;21002;-74
2022/08/13 12:10:25;;;;;;;8.00;2.50;;;38.50;2.80;;;;;;4954296;28;21007;-74
2022/08/13 12:12:50;;;;;;;4.90;2.60;;;38.60;2.30;;;;;;4963022;28;20444;-74
2022/08/13 12:15:16;;;;;;;5.10;2.37;;;38.70;1.60;;;;;;4963690;28;20961;-74
2022/08/13 12:17:50;;;;;;;3.60;2.40;;;38.60;2.30;;;;;;4956133;28;20722;-74
2022/08/13 12:20:22;;;;;;;7.23;2.53;;;39.30;1.70;;;;;;4970027;28;20179;-73
2022/08/13 12:22:59;;;;;;;3.33;2.50;;;39.40;1.80;;;;;;4955004;29;20410;-76
2022/08/13 12:25:27;;;;;;;3.13;2.67;;;39.70;1.00;;;;;;4955304;29;20391;-76
2022/08/13 12:28:13;;;;;;;5.60;2.80;;;39.50;1.50;;;;;;4955917;28;20796;-76
2022/08/13 12:30:39;;;;;;;4.10;2.53;;;40.60;1.00;;;;;;4953749;28;20481;-76
2022/08/13 12:33:06;;;;;;;2.90;2.40;;;40.70;1.00;;;;;;4963285;28;20453;-76
2022/08/13 12:35:33;;;;;;;4.80;2.27;;;41.00;1.00;;;;;;4974430;28;20406;-76
2022/08/13 12:37:59;;;;;;;8.43;2.70;;;41.20;1.00;;;;;;4973878;28;20418;-76
2022/08/13 12:40:24;;;;;;;3.30;2.70;;;40.00;1.00;;;;;;4956673;28;20516;-76
2022/08/13 12:42:50;;;;;;;5.73;2.40;;;39.30;1.00;;;;;;4957630;28;20190;-76
2022/08/13 12:45:16;;;;;;;4.73;2.30;;;38.80;1.80;;;;;;4954889;28;20171;-76
2022/08/13 12:47:44;;;;;;;3.30;2.23;;;38.30;2.20;;;;;;4955203;29;20206;-76
2022/08/13 12:50:10;;;;;;;3.00;2.30;;;37.90;1.80;;;;;;4951069;28;20175;-76
2022/08/13 12:52:36;;;;;;;9.60;2.33;;;37.70;2.50;;;;;;4962342;28;20886;-74
2022/08/13 12:55:04;;;;;;;4.67;2.40;;;37.40;2.90;;;;;;4954131;28;20403;-75
2022/08/13 12:57:30;;;;;;;2.90;2.57;;;37.10;2.30;;;;;;4957009;28;20477;-74
2022/08/13 12:59:56;;;;;;;5.03;2.60;;;36.40;3.90;;;;;;4961004;28;20450;-74
2022/08/13 13:02:22;;;;;;;11.03;2.73;;;36.20;3.40;;;;;;4961042;28;20639;-75
2022/08/13 13:04:48;;;;;;;2.70;2.47;;;35.60;4.10;;;;;;4967265;28;20600;-75
2022/08/13 13:07:14;;;;;;;4.10;2.57;;;35.60;4.20;;;;;;4960229;28;20445;-74
2022/08/13 13:09:40;;;;;;;3.33;2.40;;;35.50;3.10;;;;;;4961376;28;20462;-74
2022/08/13 13:12:06;;;;;;;2.97;2.60;;;35.30;3.70;;;;;;4942695;28;21191;-75
2022/08/13 13:14:32;;;;;;;6.17;2.67;;;34.90;3.60;;;;;;4961087;28;20665;-75
2022/08/13 13:16:57;;;;;;;3.73;2.77;;;34.90;5.70;;;;;;4962771;28;20202;-74